sensor_id;sensor_type;location;lat;lon;timestamp;P1;durP1;ratioP1;P2;durP2;ratioP2
37065;SDS011;22981;43.080;25.550;2024-03-23T00:55:41;22.58;;;15.88;;
37065;SDS011;22981;43.080;25.550;2024-03-23T00:58:09;26.25;;;16.07;;
37065;SDS011;22981;43.080;25.550;2024-03-23T01:00:36;25.40;;;17.02;;
37065;SDS011;22981;43.080;25.550;2024-03-23T01:03:04;26.07;;;16.77;;
37065;SDS011;22981;43.080;25.550;2024-03-23T01:05:32;28.15;;;18.27;;
37065;SDS011;22981;43.080;25.550;2024-03-23T01:07:59;24.25;;;18.60;;
37065;SDS011;22981;43.080;25.550;2024-03-23T01:10:27;29.70;;;19.07;;
37065;SDS011;22981;43.080;25.550;2024-03-23T01:12:55;25.40;;;17.40;;
37065;SDS011;22981;43.080;25.550;2024-03-23T01:15:22;34.10;;;21.05;;
37065;SDS011;22981;43.080;25.550;2024-03-23T01:17:50;30.10;;;21.52;;
37065;SDS011;22981;43.080;25.550;2024-03-23T01:20:17;23.77;;;16.30;;
37065;SDS011;22981;43.080;25.550;2024-03-23T01:22:45;21.20;;;13.28;;
37065;SDS011;22981;43.080;25.550;2024-03-23T01:25:13;23.52;;;13.50;;
37065;SDS011;22981;43.080;25.550;2024-03-23T01:27:40;30.05;;;16.17;;
37065;SDS011;22981;43.080;25.550;2024-03-23T01:30:08;25.65;;;15.25;;
37065;SDS011;22981;43.080;25.550;2024-03-23T01:32:35;24.25;;;14.63;;
37065;SDS011;22981;43.080;25.550;2024-03-23T01:35:03;19.17;;;13.00;;
37065;SDS011;22981;43.080;25.550;2024-03-23T01:37:31;19.35;;;12.53;;
37065;SDS011;22981;43.080;25.550;2024-03-23T01:39:58;20.70;;;13.45;;
37065;SDS011;22981;43.080;25.550;2024-03-23T01:42:26;16.70;;;11.22;;
37065;SDS011;22981;43.080;25.550;2024-03-23T01:44:53;13.28;;;10.05;;
37065;SDS011;22981;43.080;25.550;2024-03-23T01:47:21;10.72;;;7.05;;
37065;SDS011;22981;43.080;25.550;2024-03-23T01:49:48;10.65;;;7.30;;
37065;SDS011;22981;43.080;25.550;2024-03-23T01:52:17;10.90;;;8.05;;
37065;SDS011;22981;43.080;25.550;2024-03-23T01:54:44;12.05;;;8.35;;
37065;SDS011;22981;43.080;25.550;2024-03-23T01:57:12;14.20;;;9.80;;
37065;SDS011;22981;43.080;25.550;2024-03-23T01:59:40;16.85;;;11.60;;
37065;SDS011;22981;43.080;25.550;2024-03-23T02:02:08;18.32;;;13.28;;
37065;SDS011;22981;43.080;25.550;2024-03-23T02:04:35;14.33;;;10.55;;
37065;SDS011;22981;43.080;25.550;2024-03-23T02:07:03;13.93;;;10.13;;
37065;SDS011;22981;43.080;25.550;2024-03-23T02:09:33;13.72;;;10.18;;
37065;SDS011;22981;43.080;25.550;2024-03-23T02:12:01;15.28;;;11.00;;
37065;SDS011;22981;43.080;25.550;2024-03-23T02:14:29;12.00;;;9.28;;
37065;SDS011;22981;43.080;25.550;2024-03-23T02:16:58;17.15;;;9.88;;
37065;SDS011;22981;43.080;25.550;2024-03-23T02:19:25;14.45;;;9.58;;
37065;SDS011;22981;43.080;25.550;2024-03-23T02:21:53;15.45;;;10.03;;
37065;SDS011;22981;43.080;25.550;2024-03-23T02:24:20;13.55;;;9.25;;
37065;SDS011;22981;43.080;25.550;2024-03-23T02:26:48;15.95;;;10.05;;
37065;SDS011;22981;43.080;25.550;2024-03-23T02:29:15;15.50;;;10.38;;
37065;SDS011;22981;43.080;25.550;2024-03-23T02:31:43;12.30;;;9.13;;
37065;SDS011;22981;43.080;25.550;2024-03-23T02:34:10;10.98;;;8.78;;
37065;SDS011;22981;43.080;25.550;2024-03-23T02:36:38;10.65;;;7.80;;
37065;SDS011;22981;43.080;25.550;2024-03-23T02:39:05;12.10;;;7.78;;
37065;SDS011;22981;43.080;25.550;2024-03-23T02:41:33;14.35;;;8.85;;
37065;SDS011;22981;43.080;25.550;2024-03-23T02:44:01;239.10;;;84.95;;
37065;SDS011;22981;43.080;25.550;2024-03-23T02:46:29;72.92;;;30.08;;
37065;SDS011;22981;43.080;25.550;2024-03-23T02:48:56;13.62;;;8.95;;
37065;SDS011;22981;43.080;25.550;2024-03-23T02:51:24;14.00;;;8.78;;
37065;SDS011;22981;43.080;25.550;2024-03-23T02:53:51;13.05;;;8.58;;
37065;SDS011;22981;43.080;25.550;2024-03-23T02:56:19;10.15;;;8.50;;
37065;SDS011;22981;43.080;25.550;2024-03-23T02:58:46;11.70;;;8.03;;
37065;SDS011;22981;43.080;25.550;2024-03-23T03:01:14;11.50;;;8.05;;
37065;SDS011;22981;43.080;25.550;2024-03-23T03:03:42;13.78;;;9.25;;
37065;SDS011;22981;43.080;25.550;2024-03-23T03:06:10;14.00;;;10.40;;
37065;SDS011;22981;43.080;25.550;2024-03-23T03:08:38;10.85;;;9.28;;
37065;SDS011;22981;43.080;25.550;2024-03-23T03:11:05;12.30;;;8.28;;
37065;SDS011;22981;43.080;25.550;2024-03-23T03:13:33;10.43;;;8.88;;
37065;SDS011;22981;43.080;25.550;2024-03-23T03:16:00;13.32;;;9.43;;
37065;SDS011;22981;43.080;25.550;2024-03-23T03:18:28;11.78;;;9.03;;
37065;SDS011;22981;43.080;25.550;2024-03-23T03:20:55;14.45;;;9.90;;
37065;SDS011;22981;43.080;25.550;2024-03-23T03:23:23;15.50;;;11.10;;
37065;SDS011;22981;43.080;25.550;2024-03-23T03:25:50;18.98;;;12.75;;
37065;SDS011;22981;43.080;25.550;2024-03-23T03:28:18;17.00;;;12.05;;
37065;SDS011;22981;43.080;25.550;2024-03-23T03:30:46;16.27;;;11.80;;
37065;SDS011;22981;43.080;25.550;2024-03-23T03:33:14;15.23;;;11.55;;
37065;SDS011;22981;43.080;25.550;2024-03-23T03:35:42;16.93;;;11.55;;
37065;SDS011;22981;43.080;25.550;2024-03-23T03:38:11;15.68;;;11.05;;
37065;SDS011;22981;43.080;25.550;2024-03-23T03:40:38;15.32;;;11.63;;
37065;SDS011;22981;43.080;25.550;2024-03-23T03:43:06;16.15;;;11.68;;
37065;SDS011;22981;43.080;25.550;2024-03-23T03:45:33;19.00;;;12.73;;
37065;SDS011;22981;43.080;25.550;2024-03-23T03:48:01;17.23;;;11.75;;
37065;SDS011;22981;43.080;25.550;2024-03-23T03:50:28;17.48;;;12.37;;
37065;SDS011;22981;43.080;25.550;2024-03-23T03:52:56;19.85;;;14.00;;
37065;SDS011;22981;43.080;25.550;2024-03-23T03:55:24;23.52;;;14.03;;
37065;SDS011;22981;43.080;25.550;2024-03-23T03:57:51;28.90;;;17.05;;
37065;SDS011;22981;43.080;25.550;2024-03-23T04:00:19;29.30;;;16.57;;
37065;SDS011;22981;43.080;25.550;2024-03-23T04:02:46;29.82;;;14.93;;
37065;SDS011;22981;43.080;25.550;2024-03-23T04:05:14;23.10;;;12.33;;
37065;SDS011;22981;43.080;25.550;2024-03-23T04:07:42;12.88;;;10.65;;
37065;SDS011;22981;43.080;25.550;2024-03-23T04:10:09;26.23;;;15.70;;
37065;SDS011;22981;43.080;25.550;2024-03-23T04:12:37;34.48;;;18.07;;
37065;SDS011;22981;43.080;25.550;2024-03-23T04:15:04;26.10;;;14.83;;
37065;SDS011;22981;43.080;25.550;2024-03-23T04:17:32;20.32;;;13.40;;
37065;SDS011;22981;43.080;25.550;2024-03-23T04:20:00;22.82;;;13.38;;
37065;SDS011;22981;43.080;25.550;2024-03-23T04:22:30;21.05;;;13.43;;
37065;SDS011;22981;43.080;25.550;2024-03-23T04:24:58;13.80;;;10.28;;
37065;SDS011;22981;43.080;25.550;2024-03-23T04:27:25;18.48;;;10.85;;
37065;SDS011;22981;43.080;25.550;2024-03-23T04:29:53;13.15;;;10.00;;
37065;SDS011;22981;43.080;25.550;2024-03-23T04:32:20;14.68;;;10.43;;
37065;SDS011;22981;43.080;25.550;2024-03-23T04:34:48;18.30;;;11.85;;
37065;SDS011;22981;43.080;25.550;2024-03-23T04:37:16;12.35;;;9.85;;
37065;SDS011;22981;43.080;25.550;2024-03-23T04:39:43;12.43;;;9.20;;
37065;SDS011;22981;43.080;25.550;2024-03-23T04:42:11;15.53;;;10.43;;
37065;SDS011;22981;43.080;25.550;2024-03-23T04:44:40;13.72;;;10.30;;
37065;SDS011;22981;43.080;25.550;2024-03-23T04:47:07;15.88;;;10.63;;
37065;SDS011;22981;43.080;25.550;2024-03-23T04:49:35;15.63;;;11.15;;
37065;SDS011;22981;43.080;25.550;2024-03-23T04:52:03;15.83;;;10.88;;
37065;SDS011;22981;43.080;25.550;2024-03-23T04:54:31;13.93;;;10.63;;
37065;SDS011;22981;43.080;25.550;2024-03-23T04:56:59;16.80;;;11.22;;
37065;SDS011;22981;43.080;25.550;2024-03-23T04:59:26;18.70;;;11.50;;
37065;SDS011;22981;43.080;25.550;2024-03-23T05:01:54;20.08;;;13.35;;
37065;SDS011;22981;43.080;25.550;2024-03-23T05:04:21;104.55;;;57.58;;
37065;SDS011;22981;43.080;25.550;2024-03-23T05:06:49;106.70;;;55.65;;
37065;SDS011;22981;43.080;25.550;2024-03-23T05:09:17;86.12;;;49.13;;
37065;SDS011;22981;43.080;25.550;2024-03-23T05:11:45;48.68;;;33.05;;
37065;SDS011;22981;43.080;25.550;2024-03-23T05:14:13;24.23;;;17.67;;
37065;SDS011;22981;43.080;25.550;2024-03-23T05:16:41;20.57;;;14.10;;
37065;SDS011;22981;43.080;25.550;2024-03-23T05:19:10;14.47;;;11.65;;
37065;SDS011;22981;43.080;25.550;2024-03-23T05:21:37;19.40;;;14.43;;
37065;SDS011;22981;43.080;25.550;2024-03-23T05:24:05;20.77;;;16.87;;
37065;SDS011;22981;43.080;25.550;2024-03-23T05:26:33;20.15;;;15.30;;
37065;SDS011;22981;43.080;25.550;2024-03-23T05:29:01;19.62;;;13.75;;
37065;SDS011;22981;43.080;25.550;2024-03-23T05:31:29;23.02;;;15.35;;
37065;SDS011;22981;43.080;25.550;2024-03-23T05:33:57;23.75;;;15.25;;
37065;SDS011;22981;43.080;25.550;2024-03-23T05:36:25;24.27;;;15.50;;
37065;SDS011;22981;43.080;25.550;2024-03-23T05:38:53;22.20;;;15.53;;
37065;SDS011;22981;43.080;25.550;2024-03-23T05:41:20;20.52;;;15.03;;
37065;SDS011;22981;43.080;25.550;2024-03-23T05:43:49;24.55;;;17.57;;
37065;SDS011;22981;43.080;25.550;2024-03-23T05:46:17;21.37;;;15.45;;
37065;SDS011;22981;43.080;25.550;2024-03-23T05:48:44;18.12;;;13.88;;
37065;SDS011;22981;43.080;25.550;2024-03-23T05:51:12;18.40;;;13.05;;
37065;SDS011;22981;43.080;25.550;2024-03-23T05:53:40;19.90;;;13.15;;
37065;SDS011;22981;43.080;25.550;2024-03-23T05:56:07;21.70;;;14.25;;
37065;SDS011;22981;43.080;25.550;2024-03-23T05:58:35;26.97;;;17.02;;
37065;SDS011;22981;43.080;25.550;2024-03-23T06:01:02;32.15;;;19.25;;
37065;SDS011;22981;43.080;25.550;2024-03-23T06:03:30;24.72;;;16.87;;
37065;SDS011;22981;43.080;25.550;2024-03-23T06:05:58;26.57;;;19.95;;
37065;SDS011;22981;43.080;25.550;2024-03-23T06:08:25;20.70;;;16.62;;
37065;SDS011;22981;43.080;25.550;2024-03-23T06:10:53;18.55;;;14.95;;
37065;SDS011;22981;43.080;25.550;2024-03-23T06:13:20;17.90;;;13.98;;
37065;SDS011;22981;43.080;25.550;2024-03-23T06:15:50;16.80;;;12.53;;
37065;SDS011;22981;43.080;25.550;2024-03-23T06:18:17;18.05;;;14.03;;
37065;SDS011;22981;43.080;25.550;2024-03-23T06:20:45;17.32;;;12.43;;
37065;SDS011;22981;43.080;25.550;2024-03-23T06:23:12;54.88;;;16.17;;
37065;SDS011;22981;43.080;25.550;2024-03-23T06:25:41;21.77;;;15.03;;
37065;SDS011;22981;43.080;25.550;2024-03-23T06:28:08;31.15;;;20.10;;
37065;SDS011;22981;43.080;25.550;2024-03-23T06:30:37;29.32;;;17.32;;
37065;SDS011;22981;43.080;25.550;2024-03-23T06:33:05;27.37;;;17.98;;
37065;SDS011;22981;43.080;25.550;2024-03-23T06:35:32;32.65;;;18.92;;
37065;SDS011;22981;43.080;25.550;2024-03-23T06:38:00;32.38;;;17.75;;
37065;SDS011;22981;43.080;25.550;2024-03-23T06:40:27;22.70;;;16.17;;
37065;SDS011;22981;43.080;25.550;2024-03-23T06:42:55;21.40;;;16.05;;
37065;SDS011;22981;43.080;25.550;2024-03-23T06:45:22;40.52;;;16.50;;
37065;SDS011;22981;43.080;25.550;2024-03-23T06:47:50;22.45;;;15.75;;
37065;SDS011;22981;43.080;25.550;2024-03-23T06:50:17;20.95;;;15.03;;
37065;SDS011;22981;43.080;25.550;2024-03-23T06:52:45;22.45;;;15.78;;
37065;SDS011;22981;43.080;25.550;2024-03-23T06:55:13;21.07;;;15.85;;
37065;SDS011;22981;43.080;25.550;2024-03-23T06:57:40;20.62;;;15.00;;
37065;SDS011;22981;43.080;25.550;2024-03-23T07:00:08;22.15;;;15.75;;
37065;SDS011;22981;43.080;25.550;2024-03-23T07:02:36;25.62;;;16.55;;
37065;SDS011;22981;43.080;25.550;2024-03-23T07:05:04;25.27;;;16.90;;
37065;SDS011;22981;43.080;25.550;2024-03-23T07:07:32;25.37;;;16.23;;
37065;SDS011;22981;43.080;25.550;2024-03-23T07:10:00;22.50;;;16.15;;
37065;SDS011;22981;43.080;25.550;2024-03-23T07:12:28;29.27;;;17.50;;
37065;SDS011;22981;43.080;25.550;2024-03-23T07:14:55;22.27;;;16.35;;
37065;SDS011;22981;43.080;25.550;2024-03-23T07:17:23;23.57;;;16.42;;
37065;SDS011;22981;43.080;25.550;2024-03-23T07:19:50;18.35;;;14.98;;
37065;SDS011;22981;43.080;25.550;2024-03-23T07:22:18;23.20;;;15.93;;
37065;SDS011;22981;43.080;25.550;2024-03-23T07:24:45;19.87;;;14.90;;
37065;SDS011;22981;43.080;25.550;2024-03-23T07:27:13;19.40;;;13.90;;
37065;SDS011;22981;43.080;25.550;2024-03-23T07:29:41;18.82;;;13.58;;
37065;SDS011;22981;43.080;25.550;2024-03-23T07:32:08;17.77;;;13.98;;
37065;SDS011;22981;43.080;25.550;2024-03-23T07:34:37;21.27;;;14.45;;
37065;SDS011;22981;43.080;25.550;2024-03-23T07:37:04;14.28;;;11.75;;
37065;SDS011;22981;43.080;25.550;2024-03-23T07:39:32;16.75;;;11.93;;
37065;SDS011;22981;43.080;25.550;2024-03-23T07:42:00;20.92;;;11.53;;
37065;SDS011;22981;43.080;25.550;2024-03-23T07:44:27;14.55;;;11.30;;
37065;SDS011;22981;43.080;25.550;2024-03-23T07:46:55;16.07;;;11.33;;
37065;SDS011;22981;43.080;25.550;2024-03-23T07:49:22;14.60;;;10.23;;
37065;SDS011;22981;43.080;25.550;2024-03-23T07:51:50;13.40;;;10.75;;
37065;SDS011;22981;43.080;25.550;2024-03-23T07:54:17;15.48;;;10.45;;
37065;SDS011;22981;43.080;25.550;2024-03-23T07:56:45;14.55;;;9.88;;
37065;SDS011;22981;43.080;25.550;2024-03-23T07:59:12;14.60;;;9.83;;
37065;SDS011;22981;43.080;25.550;2024-03-23T08:01:40;15.18;;;9.60;;
37065;SDS011;22981;43.080;25.550;2024-03-23T08:04:07;11.30;;;8.75;;
37065;SDS011;22981;43.080;25.550;2024-03-23T08:06:35;9.55;;;7.30;;
37065;SDS011;22981;43.080;25.550;2024-03-23T08:09:04;10.60;;;7.87;;
37065;SDS011;22981;43.080;25.550;2024-03-23T08:11:32;8.20;;;6.25;;
37065;SDS011;22981;43.080;25.550;2024-03-23T08:14:00;7.25;;;5.05;;
37065;SDS011;22981;43.080;25.550;2024-03-23T08:16:28;6.75;;;5.15;;
37065;SDS011;22981;43.080;25.550;2024-03-23T08:18:55;16.93;;;4.90;;
37065;SDS011;22981;43.080;25.550;2024-03-23T08:21:23;4.78;;;3.75;;
37065;SDS011;22981;43.080;25.550;2024-03-23T08:23:52;3.72;;;2.85;;
37065;SDS011;22981;43.080;25.550;2024-03-23T08:26:19;7.83;;;4.97;;
37065;SDS011;22981;43.080;25.550;2024-03-23T08:28:47;3.87;;;2.75;;
37065;SDS011;22981;43.080;25.550;2024-03-23T08:31:14;6.08;;;3.12;;
37065;SDS011;22981;43.080;25.550;2024-03-23T08:33:42;3.87;;;3.47;;
37065;SDS011;22981;43.080;25.550;2024-03-23T08:36:10;4.25;;;3.20;;
37065;SDS011;22981;43.080;25.550;2024-03-23T08:38:38;3.27;;;2.75;;
37065;SDS011;22981;43.080;25.550;2024-03-23T08:41:06;3.40;;;2.90;;
37065;SDS011;22981;43.080;25.550;2024-03-23T08:43:35;4.22;;;2.70;;
37065;SDS011;22981;43.080;25.550;2024-03-23T08:46:12;3.47;;;2.37;;
37065;SDS011;22981;43.080;25.550;2024-03-23T08:48:37;2.98;;;2.10;;
37065;SDS011;22981;43.080;25.550;2024-03-23T08:51:09;12.00;;;2.77;;
37065;SDS011;22981;43.080;25.550;2024-03-23T08:53:37;2.77;;;2.15;;
37065;SDS011;22981;43.080;25.550;2024-03-23T08:56:06;4.40;;;2.37;;
37065;SDS011;22981;43.080;25.550;2024-03-23T08:58:35;5.05;;;3.90;;
37065;SDS011;22981;43.080;25.550;2024-03-23T09:01:10;2.83;;;2.10;;
37065;SDS011;22981;43.080;25.550;2024-03-23T09:03:38;3.55;;;2.77;;
37065;SDS011;22981;43.080;25.550;2024-03-23T09:06:13;3.20;;;2.60;;
37065;SDS011;22981;43.080;25.550;2024-03-23T09:08:41;3.42;;;2.35;;
37065;SDS011;22981;43.080;25.550;2024-03-23T09:11:09;2.60;;;2.30;;
37065;SDS011;22981;43.080;25.550;2024-03-23T09:13:38;2.95;;;2.22;;
37065;SDS011;22981;43.080;25.550;2024-03-23T09:16:07;3.45;;;2.37;;
37065;SDS011;22981;43.080;25.550;2024-03-23T09:18:35;3.47;;;2.17;;
37065;SDS011;22981;43.080;25.550;2024-03-23T09:21:03;2.25;;;2.05;;
37065;SDS011;22981;43.080;25.550;2024-03-23T09:23:32;3.52;;;2.15;;
37065;SDS011;22981;43.080;25.550;2024-03-23T09:26:02;2.92;;;2.30;;
37065;SDS011;22981;43.080;25.550;2024-03-23T09:28:34;3.08;;;2.67;;
37065;SDS011;22981;43.080;25.550;2024-03-23T09:31:04;2.62;;;2.25;;
37065;SDS011;22981;43.080;25.550;2024-03-23T09:33:33;5.30;;;2.52;;
37065;SDS011;22981;43.080;25.550;2024-03-23T09:36:05;4.22;;;2.40;;
37065;SDS011;22981;43.080;25.550;2024-03-23T09:38:33;4.92;;;2.12;;
37065;SDS011;22981;43.080;25.550;2024-03-23T09:41:06;4.78;;;1.98;;
37065;SDS011;22981;43.080;25.550;2024-03-23T09:43:35;2.50;;;1.92;;
37065;SDS011;22981;43.080;25.550;2024-03-23T09:46:03;2.67;;;2.05;;
37065;SDS011;22981;43.080;25.550;2024-03-23T09:48:31;3.45;;;1.80;;
37065;SDS011;22981;43.080;25.550;2024-03-23T09:50:58;3.70;;;2.30;;
37065;SDS011;22981;43.080;25.550;2024-03-23T09:53:26;2.77;;;2.15;;
37065;SDS011;22981;43.080;25.550;2024-03-23T09:55:53;3.33;;;1.82;;
37065;SDS011;22981;43.080;25.550;2024-03-23T09:58:23;3.00;;;1.60;;
37065;SDS011;22981;43.080;25.550;2024-03-23T10:00:50;1.90;;;1.65;;
37065;SDS011;22981;43.080;25.550;2024-03-23T10:03:18;2.67;;;2.00;;
37065;SDS011;22981;43.080;25.550;2024-03-23T10:05:45;2.65;;;1.90;;
37065;SDS011;22981;43.080;25.550;2024-03-23T10:10:44;3.30;;;1.98;;
37065;SDS011;22981;43.080;25.550;2024-03-23T10:13:28;1.90;;;1.70;;
37065;SDS011;22981;43.080;25.550;2024-03-23T10:15:56;3.37;;;2.20;;
37065;SDS011;22981;43.080;25.550;2024-03-23T10:18:25;3.27;;;2.17;;
37065;SDS011;22981;43.080;25.550;2024-03-23T10:23:39;3.30;;;2.00;;
37065;SDS011;22981;43.080;25.550;2024-03-23T10:26:20;2.80;;;1.87;;
37065;SDS011;22981;43.080;25.550;2024-03-23T10:28:54;3.45;;;1.90;;
37065;SDS011;22981;43.080;25.550;2024-03-23T10:31:24;2.95;;;1.80;;
37065;SDS011;22981;43.080;25.550;2024-03-23T10:33:52;2.45;;;1.75;;
37065;SDS011;22981;43.080;25.550;2024-03-23T10:36:21;2.15;;;1.60;;
37065;SDS011;22981;43.080;25.550;2024-03-23T10:38:51;3.40;;;1.90;;
37065;SDS011;22981;43.080;25.550;2024-03-23T10:41:20;2.85;;;2.45;;
37065;SDS011;22981;43.080;25.550;2024-03-23T10:43:48;3.08;;;2.10;;
37065;SDS011;22981;43.080;25.550;2024-03-23T10:46:16;4.78;;;2.20;;
37065;SDS011;22981;43.080;25.550;2024-03-23T10:48:44;3.10;;;1.87;;
37065;SDS011;22981;43.080;25.550;2024-03-23T10:51:12;2.05;;;1.75;;
37065;SDS011;22981;43.080;25.550;2024-03-23T10:53:40;2.10;;;1.72;;
37065;SDS011;22981;43.080;25.550;2024-03-23T10:56:08;1.70;;;1.60;;
37065;SDS011;22981;43.080;25.550;2024-03-23T10:58:38;2.55;;;1.72;;
37065;SDS011;22981;43.080;25.550;2024-03-23T11:01:11;2.98;;;2.12;;
37065;SDS011;22981;43.080;25.550;2024-03-23T11:03:39;2.10;;;1.70;;
37065;SDS011;22981;43.080;25.550;2024-03-23T11:09:03;2.30;;;1.75;;
37065;SDS011;22981;43.080;25.550;2024-03-23T11:11:32;3.27;;;1.95;;
37065;SDS011;22981;43.080;25.550;2024-03-23T11:14:00;3.67;;;1.80;;
37065;SDS011;22981;43.080;25.550;2024-03-23T11:16:29;4.30;;;2.05;;
37065;SDS011;22981;43.080;25.550;2024-03-23T11:22:00;4.10;;;2.58;;
37065;SDS011;22981;43.080;25.550;2024-03-23T11:24:29;2.77;;;2.00;;
37065;SDS011;22981;43.080;25.550;2024-03-23T11:26:56;2.08;;;1.80;;
37065;SDS011;22981;43.080;25.550;2024-03-23T11:29:29;2.33;;;2.00;;
37065;SDS011;22981;43.080;25.550;2024-03-23T11:31:56;3.10;;;2.05;;
37065;SDS011;22981;43.080;25.550;2024-03-23T11:34:25;1.77;;;1.52;;
37065;SDS011;22981;43.080;25.550;2024-03-23T11:37:03;2.33;;;1.95;;
37065;SDS011;22981;43.080;25.550;2024-03-23T11:39:33;3.45;;;1.90;;
37065;SDS011;22981;43.080;25.550;2024-03-23T11:42:00;2.47;;;1.67;;
37065;SDS011;22981;43.080;25.550;2024-03-23T11:44:28;3.87;;;2.62;;
37065;SDS011;22981;43.080;25.550;2024-03-23T11:47:06;2.87;;;2.00;;
37065;SDS011;22981;43.080;25.550;2024-03-23T11:49:36;3.12;;;1.98;;
37065;SDS011;22981;43.080;25.550;2024-03-23T11:52:05;3.15;;;1.80;;
37065;SDS011;22981;43.080;25.550;2024-03-23T11:54:33;4.47;;;2.12;;
37065;SDS011;22981;43.080;25.550;2024-03-23T11:57:08;7.12;;;6.25;;
37065;SDS011;22981;43.080;25.550;2024-03-23T12:02:10;2.67;;;2.10;;
37065;SDS011;22981;43.080;25.550;2024-03-23T12:04:42;1.98;;;1.72;;
37065;SDS011;22981;43.080;25.550;2024-03-23T12:07:10;5.22;;;3.52;;
37065;SDS011;22981;43.080;25.550;2024-03-23T12:09:43;3.12;;;2.40;;
37065;SDS011;22981;43.080;25.550;2024-03-23T12:12:15;3.77;;;1.92;;
37065;SDS011;22981;43.080;25.550;2024-03-23T12:14:44;35.13;;;31.73;;
37065;SDS011;22981;43.080;25.550;2024-03-23T12:17:14;4.75;;;2.08;;
37065;SDS011;22981;43.080;25.550;2024-03-23T12:19:42;2.92;;;2.08;;
37065;SDS011;22981;43.080;25.550;2024-03-23T12:22:11;2.60;;;1.70;;
37065;SDS011;22981;43.080;25.550;2024-03-23T12:24:39;4.40;;;4.00;;
37065;SDS011;22981;43.080;25.550;2024-03-23T12:27:08;6.65;;;2.33;;
37065;SDS011;22981;43.080;25.550;2024-03-23T12:29:35;7.33;;;5.40;;
37065;SDS011;22981;43.080;25.550;2024-03-23T12:32:05;5.50;;;2.77;;
37065;SDS011;22981;43.080;25.550;2024-03-23T12:34:33;3.75;;;2.72;;
37065;SDS011;22981;43.080;25.550;2024-03-23T12:37:01;2.27;;;1.70;;
37065;SDS011;22981;43.080;25.550;2024-03-23T12:39:29;6.70;;;3.37;;
37065;SDS011;22981;43.080;25.550;2024-03-23T12:41:56;4.97;;;3.35;;
37065;SDS011;22981;43.080;25.550;2024-03-23T12:44:24;3.55;;;2.17;;
37065;SDS011;22981;43.080;25.550;2024-03-23T12:46:51;3.52;;;2.15;;
37065;SDS011;22981;43.080;25.550;2024-03-23T12:49:19;3.10;;;2.45;;
37065;SDS011;22981;43.080;25.550;2024-03-23T12:51:48;2.50;;;2.00;;
37065;SDS011;22981;43.080;25.550;2024-03-23T12:54:20;6.67;;;5.45;;
37065;SDS011;22981;43.080;25.550;2024-03-23T12:56:48;4.42;;;3.77;;
37065;SDS011;22981;43.080;25.550;2024-03-23T12:59:16;15.75;;;12.93;;
37065;SDS011;22981;43.080;25.550;2024-03-23T13:01:44;5.00;;;3.50;;
37065;SDS011;22981;43.080;25.550;2024-03-23T13:04:12;3.98;;;2.30;;
37065;SDS011;22981;43.080;25.550;2024-03-23T13:06:39;4.25;;;2.05;;
37065;SDS011;22981;43.080;25.550;2024-03-23T13:09:07;3.15;;;2.20;;
37065;SDS011;22981;43.080;25.550;2024-03-23T13:11:34;2.60;;;2.40;;
37065;SDS011;22981;43.080;25.550;2024-03-23T13:14:02;2.40;;;1.98;;
37065;SDS011;22981;43.080;25.550;2024-03-23T13:16:30;17.15;;;15.48;;
37065;SDS011;22981;43.080;25.550;2024-03-23T13:18:58;12.07;;;10.93;;
37065;SDS011;22981;43.080;25.550;2024-03-23T13:21:26;2.77;;;2.52;;
37065;SDS011;22981;43.080;25.550;2024-03-23T13:23:54;2.55;;;2.08;;
37065;SDS011;22981;43.080;25.550;2024-03-23T13:26:22;12.23;;;2.40;;
37065;SDS011;22981;43.080;25.550;2024-03-23T13:28:49;5.58;;;1.98;;
37065;SDS011;22981;43.080;25.550;2024-03-23T13:31:17;4.83;;;1.82;;
37065;SDS011;22981;43.080;25.550;2024-03-23T13:33:44;4.50;;;2.02;;
37065;SDS011;22981;43.080;25.550;2024-03-23T13:36:12;2.75;;;1.80;;
37065;SDS011;22981;43.080;25.550;2024-03-23T13:38:40;6.58;;;5.97;;
37065;SDS011;22981;43.080;25.550;2024-03-23T13:41:07;3.95;;;2.22;;
37065;SDS011;22981;43.080;25.550;2024-03-23T13:43:36;3.27;;;1.98;;
37065;SDS011;22981;43.080;25.550;2024-03-23T13:46:04;4.08;;;2.17;;
37065;SDS011;22981;43.080;25.550;2024-03-23T13:48:31;2.80;;;2.05;;
37065;SDS011;22981;43.080;25.550;2024-03-23T13:50:59;2.77;;;2.17;;
37065;SDS011;22981;43.080;25.550;2024-03-23T13:53:29;8.08;;;6.12;;
37065;SDS011;22981;43.080;25.550;2024-03-23T13:55:59;5.58;;;3.47;;
37065;SDS011;22981;43.080;25.550;2024-03-23T13:58:26;3.33;;;2.42;;
37065;SDS011;22981;43.080;25.550;2024-03-23T14:00:55;3.77;;;3.27;;
37065;SDS011;22981;43.080;25.550;2024-03-23T14:03:23;15.13;;;13.45;;
37065;SDS011;22981;43.080;25.550;2024-03-23T14:05:51;2.60;;;2.40;;
37065;SDS011;22981;43.080;25.550;2024-03-23T14:08:19;4.87;;;3.87;;
37065;SDS011;22981;43.080;25.550;2024-03-23T14:10:47;7.00;;;4.22;;
37065;SDS011;22981;43.080;25.550;2024-03-23T14:13:15;4.70;;;4.17;;
37065;SDS011;22981;43.080;25.550;2024-03-23T14:15:43;3.17;;;2.10;;
37065;SDS011;22981;43.080;25.550;2024-03-23T14:18:11;3.33;;;2.20;;
37065;SDS011;22981;43.080;25.550;2024-03-23T14:20:39;10.35;;;8.68;;
37065;SDS011;22981;43.080;25.550;2024-03-23T14:23:06;4.03;;;3.30;;
37065;SDS011;22981;43.080;25.550;2024-03-23T14:25:34;2.33;;;1.98;;
37065;SDS011;22981;43.080;25.550;2024-03-23T14:28:02;4.10;;;2.33;;
37065;SDS011;22981;43.080;25.550;2024-03-23T14:30:29;2.75;;;2.02;;
37065;SDS011;22981;43.080;25.550;2024-03-23T14:32:57;3.33;;;2.20;;
37065;SDS011;22981;43.080;25.550;2024-03-23T14:35:25;2.65;;;2.20;;
37065;SDS011;22981;43.080;25.550;2024-03-23T14:37:52;3.02;;;2.20;;
37065;SDS011;22981;43.080;25.550;2024-03-23T14:40:20;5.62;;;4.92;;
37065;SDS011;22981;43.080;25.550;2024-03-23T14:42:47;3.70;;;2.20;;
37065;SDS011;22981;43.080;25.550;2024-03-23T14:45:15;5.05;;;2.80;;
37065;SDS011;22981;43.080;25.550;2024-03-23T14:47:42;3.33;;;2.00;;
37065;SDS011;22981;43.080;25.550;2024-03-23T14:50:10;3.12;;;2.47;;
37065;SDS011;22981;43.080;25.550;2024-03-23T14:52:40;3.10;;;2.42;;
37065;SDS011;22981;43.080;25.550;2024-03-23T14:55:08;4.70;;;2.60;;
37065;SDS011;22981;43.080;25.550;2024-03-23T14:57:36;9.10;;;7.60;;
37065;SDS011;22981;43.080;25.550;2024-03-23T15:00:09;2.80;;;2.25;;
37065;SDS011;22981;43.080;25.550;2024-03-23T15:02:37;15.50;;;13.90;;
37065;SDS011;22981;43.080;25.550;2024-03-23T15:05:06;3.30;;;2.72;;
37065;SDS011;22981;43.080;25.550;2024-03-23T15:07:37;3.75;;;2.80;;
37065;SDS011;22981;43.080;25.550;2024-03-23T15:10:05;3.52;;;2.85;;
37065;SDS011;22981;43.080;25.550;2024-03-23T15:12:33;6.92;;;5.85;;
37065;SDS011;22981;43.080;25.550;2024-03-23T15:15:01;3.83;;;2.80;;
37065;SDS011;22981;43.080;25.550;2024-03-23T15:17:28;5.90;;;4.50;;
37065;SDS011;22981;43.080;25.550;2024-03-23T15:19:58;3.30;;;2.95;;
37065;SDS011;22981;43.080;25.550;2024-03-23T15:22:25;3.33;;;2.10;;
37065;SDS011;22981;43.080;25.550;2024-03-23T15:24:53;4.08;;;2.83;;
37065;SDS011;22981;43.080;25.550;2024-03-23T15:27:20;3.20;;;2.37;;
37065;SDS011;22981;43.080;25.550;2024-03-23T15:29:48;2.60;;;2.27;;
37065;SDS011;22981;43.080;25.550;2024-03-23T15:32:15;4.53;;;4.00;;
37065;SDS011;22981;43.080;25.550;2024-03-23T15:34:43;3.98;;;2.50;;